sensor_id;sensor_type;location;lat;lon;timestamp;P1;durP1;ratioP1;P2;durP2;ratioP2
23206;SDS011;11773;52.570;13.052;2023-07-29T00:00:34;0.60;;;0.60;;
23206;SDS011;11773;52.570;13.052;2023-07-29T00:03:04;0.70;;;0.70;;
23206;SDS011;11773;52.570;13.052;2023-07-29T00:05:34;0.60;;;0.60;;
23206;SDS011;11773;52.570;13.052;2023-07-29T00:08:04;0.60;;;0.60;;
23206;SDS011;11773;52.570;13.052;2023-07-29T00:10:37;0.63;;;0.63;;
23206;SDS011;11773;52.570;13.052;2023-07-29T00:13:07;0.40;;;0.40;;
23206;SDS011;11773;52.570;13.052;2023-07-29T00:15:36;0.70;;;0.70;;
23206;SDS011;11773;52.570;13.052;2023-07-29T00:18:06;0.47;;;0.47;;
23206;SDS011;11773;52.570;13.052;2023-07-29T00:20:35;0.47;;;0.47;;
23206;SDS011;11773;52.570;13.052;2023-07-29T00:23:05;0.43;;;0.43;;
23206;SDS011;11773;52.570;13.052;2023-07-29T00:25:35;0.30;;;0.30;;
23206;SDS011;11773;52.570;13.052;2023-07-29T00:28:05;0.30;;;0.30;;
23206;SDS011;11773;52.570;13.052;2023-07-29T00:30:34;0.30;;;0.30;;
23206;SDS011;11773;52.570;13.052;2023-07-29T00:33:04;0.33;;;0.33;;
23206;SDS011;11773;52.570;13.052;2023-07-29T00:35:34;0.40;;;0.40;;
23206;SDS011;11773;52.570;13.052;2023-07-29T00:38:03;0.30;;;0.30;;
23206;SDS011;11773;52.570;13.052;2023-07-29T00:40:35;0.40;;;0.40;;
23206;SDS011;11773;52.570;13.052;2023-07-29T00:43:05;0.30;;;0.30;;
23206;SDS011;11773;52.570;13.052;2023-07-29T00:45:34;0.30;;;0.30;;
23206;SDS011;11773;52.570;13.052;2023-07-29T00:48:05;0.50;;;0.50;;
23206;SDS011;11773;52.570;13.052;2023-07-29T00:50:34;0.73;;;0.73;;
23206;SDS011;11773;52.570;13.052;2023-07-29T00:53:04;0.50;;;0.50;;
23206;SDS011;11773;52.570;13.052;2023-07-29T00:55:34;0.60;;;0.60;;
23206;SDS011;11773;52.570;13.052;2023-07-29T00:58:04;0.50;;;0.50;;
23206;SDS011;11773;52.570;13.052;2023-07-29T01:00:34;0.60;;;0.60;;
23206;SDS011;11773;52.570;13.052;2023-07-29T01:03:05;0.70;;;0.70;;
23206;SDS011;11773;52.570;13.052;2023-07-29T01:05:44;0.50;;;0.50;;
23206;SDS011;11773;52.570;13.052;2023-07-29T01:08:19;0.40;;;0.40;;
23206;SDS011;11773;52.570;13.052;2023-07-29T01:11:11;0.40;;;0.40;;
23206;SDS011;11773;52.570;13.052;2023-07-29T01:14:21;0.77;;;0.77;;
23206;SDS011;11773;52.570;13.052;2023-07-29T01:16:52;0.47;;;0.47;;
23206;SDS011;11773;52.570;13.052;2023-07-29T01:19:55;0.40;;;0.40;;
23206;SDS011;11773;52.570;13.052;2023-07-29T01:22:23;0.40;;;0.40;;
23206;SDS011;11773;52.570;13.052;2023-07-29T01:24:54;0.50;;;0.50;;
23206;SDS011;11773;52.570;13.052;2023-07-29T01:27:23;0.60;;;0.60;;
23206;SDS011;11773;52.570;13.052;2023-07-29T01:29:53;0.63;;;0.63;;
23206;SDS011;11773;52.570;13.052;2023-07-29T01:32:35;0.50;;;0.50;;
23206;SDS011;11773;52.570;13.052;2023-07-29T01:38:20;0.70;;;0.70;;
23206;SDS011;11773;52.570;13.052;2023-07-29T01:40:59;0.60;;;0.60;;
23206;SDS011;11773;52.570;13.052;2023-07-29T01:43:30;0.93;;;0.93;;
23206;SDS011;11773;52.570;13.052;2023-07-29T01:46:01;1.07;;;0.90;;
23206;SDS011;11773;52.570;13.052;2023-07-29T01:48:30;0.50;;;0.47;;
23206;SDS011;11773;52.570;13.052;2023-07-29T01:51:00;0.40;;;0.40;;
23206;SDS011;11773;52.570;13.052;2023-07-29T01:53:30;0.40;;;0.40;;
23206;SDS011;11773;52.570;13.052;2023-07-29T01:56:01;0.40;;;0.40;;
23206;SDS011;11773;52.570;13.052;2023-07-29T01:58:31;0.43;;;0.43;;
23206;SDS011;11773;52.570;13.052;2023-07-29T02:01:01;0.40;;;0.40;;
23206;SDS011;11773;52.570;13.052;2023-07-29T02:03:30;0.50;;;0.50;;
23206;SDS011;11773;52.570;13.052;2023-07-29T02:06:00;0.70;;;0.70;;
23206;SDS011;11773;52.570;13.052;2023-07-29T02:08:30;0.47;;;0.47;;
23206;SDS011;11773;52.570;13.052;2023-07-29T02:10:59;0.50;;;0.50;;
23206;SDS011;11773;52.570;13.052;2023-07-29T02:13:29;0.30;;;0.30;;
23206;SDS011;11773;52.570;13.052;2023-07-29T02:15:58;0.57;;;0.57;;
23206;SDS011;11773;52.570;13.052;2023-07-29T02:18:28;0.50;;;0.50;;
23206;SDS011;11773;52.570;13.052;2023-07-29T02:20:58;1.60;;;0.43;;
23206;SDS011;11773;52.570;13.052;2023-07-29T02:23:27;2.83;;;0.60;;
23206;SDS011;11773;52.570;13.052;2023-07-29T02:25:57;0.60;;;0.60;;
23206;SDS011;11773;52.570;13.052;2023-07-29T02:28:26;0.40;;;0.40;;
23206;SDS011;11773;52.570;13.052;2023-07-29T02:31:09;0.63;;;0.63;;
23206;SDS011;11773;52.570;13.052;2023-07-29T02:33:51;0.57;;;0.57;;
23206;SDS011;11773;52.570;13.052;2023-07-29T02:36:21;0.30;;;0.30;;
23206;SDS011;11773;52.570;13.052;2023-07-29T02:38:51;0.50;;;0.50;;
23206;SDS011;11773;52.570;13.052;2023-07-29T02:41:20;0.50;;;0.50;;
23206;SDS011;11773;52.570;13.052;2023-07-29T02:43:50;0.73;;;0.73;;
23206;SDS011;11773;52.570;13.052;2023-07-29T02:46:19;1.47;;;0.80;;
23206;SDS011;11773;52.570;13.052;2023-07-29T02:48:50;0.60;;;0.50;;
23206;SDS011;11773;52.570;13.052;2023-07-29T02:51:19;0.60;;;0.60;;
23206;SDS011;11773;52.570;13.052;2023-07-29T02:53:49;0.60;;;0.60;;
23206;SDS011;11773;52.570;13.052;2023-07-29T02:56:19;0.70;;;0.70;;
23206;SDS011;11773;52.570;13.052;2023-07-29T02:58:48;0.63;;;0.57;;
23206;SDS011;11773;52.570;13.052;2023-07-29T03:01:22;0.60;;;0.60;;
23206;SDS011;11773;52.570;13.052;2023-07-29T03:03:55;1.07;;;0.33;;
23206;SDS011;11773;52.570;13.052;2023-07-29T03:06:24;0.60;;;0.60;;
23206;SDS011;11773;52.570;13.052;2023-07-29T03:08:54;0.50;;;0.50;;
23206;SDS011;11773;52.570;13.052;2023-07-29T03:11:23;0.50;;;0.50;;
23206;SDS011;11773;52.570;13.052;2023-07-29T03:13:53;0.60;;;0.60;;
23206;SDS011;11773;52.570;13.052;2023-07-29T03:16:23;0.43;;;0.43;;
23206;SDS011;11773;52.570;13.052;2023-07-29T03:18:53;0.27;;;0.27;;
23206;SDS011;11773;52.570;13.052;2023-07-29T03:21:23;0.30;;;0.30;;
23206;SDS011;11773;52.570;13.052;2023-07-29T03:23:52;0.30;;;0.30;;
23206;SDS011;11773;52.570;13.052;2023-07-29T03:26:22;0.30;;;0.30;;
23206;SDS011;11773;52.570;13.052;2023-07-29T03:28:52;0.40;;;0.40;;
23206;SDS011;11773;52.570;13.052;2023-07-29T03:31:21;0.60;;;0.60;;
23206;SDS011;11773;52.570;13.052;2023-07-29T03:33:51;0.33;;;0.33;;
23206;SDS011;11773;52.570;13.052;2023-07-29T03:36:21;0.40;;;0.40;;
23206;SDS011;11773;52.570;13.052;2023-07-29T03:38:53;0.60;;;0.60;;
23206;SDS011;11773;52.570;13.052;2023-07-29T03:41:23;0.63;;;0.60;;
23206;SDS011;11773;52.570;13.052;2023-07-29T03:43:52;0.40;;;0.40;;
23206;SDS011;11773;52.570;13.052;2023-07-29T03:46:22;0.60;;;0.60;;
23206;SDS011;11773;52.570;13.052;2023-07-29T03:48:52;0.73;;;0.73;;
23206;SDS011;11773;52.570;13.052;2023-07-29T03:51:22;1.23;;;0.40;;
23206;SDS011;11773;52.570;13.052;2023-07-29T03:53:51;0.80;;;0.80;;
23206;SDS011;11773;52.570;13.052;2023-07-29T03:56:21;0.50;;;0.50;;
23206;SDS011;11773;52.570;13.052;2023-07-29T03:58:51;0.53;;;0.53;;
23206;SDS011;11773;52.570;13.052;2023-07-29T04:01:21;0.70;;;0.70;;
23206;SDS011;11773;52.570;13.052;2023-07-29T04:03:51;0.60;;;0.60;;
23206;SDS011;11773;52.570;13.052;2023-07-29T04:06:21;0.60;;;0.60;;
23206;SDS011;11773;52.570;13.052;2023-07-29T04:08:51;0.50;;;0.50;;
23206;SDS011;11773;52.570;13.052;2023-07-29T04:11:21;0.67;;;0.50;;
23206;SDS011;11773;52.570;13.052;2023-07-29T04:13:51;0.57;;;0.57;;
23206;SDS011;11773;52.570;13.052;2023-07-29T04:16:21;0.50;;;0.50;;
23206;SDS011;11773;52.570;13.052;2023-07-29T04:18:50;0.70;;;0.70;;
23206;SDS011;11773;52.570;13.052;2023-07-29T04:21:20;0.70;;;0.70;;
23206;SDS011;11773;52.570;13.052;2023-07-29T04:23:49;0.50;;;0.50;;
23206;SDS011;11773;52.570;13.052;2023-07-29T04:26:19;0.60;;;0.60;;
23206;SDS011;11773;52.570;13.052;2023-07-29T04:28:49;0.80;;;0.80;;
23206;SDS011;11773;52.570;13.052;2023-07-29T04:31:18;0.53;;;0.53;;
23206;SDS011;11773;52.570;13.052;2023-07-29T04:33:48;0.77;;;0.77;;
23206;SDS011;11773;52.570;13.052;2023-07-29T04:36:17;0.60;;;0.60;;
23206;SDS011;11773;52.570;13.052;2023-07-29T04:38:47;0.70;;;0.70;;
23206;SDS011;11773;52.570;13.052;2023-07-29T04:41:16;0.70;;;0.70;;
23206;SDS011;11773;52.570;13.052;2023-07-29T04:43:46;0.70;;;0.70;;
23206;SDS011;11773;52.570;13.052;2023-07-29T04:46:16;0.60;;;0.60;;
23206;SDS011;11773;52.570;13.052;2023-07-29T04:48:46;0.70;;;0.70;;
23206;SDS011;11773;52.570;13.052;2023-07-29T04:51:15;0.70;;;0.70;;
23206;SDS011;11773;52.570;13.052;2023-07-29T04:53:45;0.60;;;0.60;;
23206;SDS011;11773;52.570;13.052;2023-07-29T04:56:15;1.40;;;1.30;;
23206;SDS011;11773;52.570;13.052;2023-07-29T04:58:45;1.13;;;1.13;;
23206;SDS011;11773;52.570;13.052;2023-07-29T05:01:14;0.93;;;0.93;;
23206;SDS011;11773;52.570;13.052;2023-07-29T05:03:44;1.43;;;1.27;;
23206;SDS011;11773;52.570;13.052;2023-07-29T05:06:14;1.00;;;1.00;;
23206;SDS011;11773;52.570;13.052;2023-07-29T05:08:43;1.13;;;1.07;;
23206;SDS011;11773;52.570;13.052;2023-07-29T05:11:13;0.90;;;0.90;;
23206;SDS011;11773;52.570;13.052;2023-07-29T05:13:42;0.83;;;0.83;;
23206;SDS011;11773;52.570;13.052;2023-07-29T05:16:12;0.70;;;0.70;;
23206;SDS011;11773;52.570;13.052;2023-07-29T05:18:41;1.80;;;1.10;;
23206;SDS011;11773;52.570;13.052;2023-07-29T05:21:11;1.10;;;1.10;;
23206;SDS011;11773;52.570;13.052;2023-07-29T05:23:41;0.90;;;0.90;;
23206;SDS011;11773;52.570;13.052;2023-07-29T05:26:11;1.20;;;1.00;;
23206;SDS011;11773;52.570;13.052;2023-07-29T05:28:40;0.83;;;0.83;;
23206;SDS011;11773;52.570;13.052;2023-07-29T05:31:10;1.47;;;0.77;;
23206;SDS011;11773;52.570;13.052;2023-07-29T05:33:39;1.03;;;0.90;;
23206;SDS011;11773;52.570;13.052;2023-07-29T05:36:09;0.87;;;0.87;;
23206;SDS011;11773;52.570;13.052;2023-07-29T05:38:39;1.20;;;1.10;;
23206;SDS011;11773;52.570;13.052;2023-07-29T05:41:08;1.17;;;1.10;;
23206;SDS011;11773;52.570;13.052;2023-07-29T05:43:38;1.97;;;1.87;;
23206;SDS011;11773;52.570;13.052;2023-07-29T05:46:09;1.13;;;1.13;;
23206;SDS011;11773;52.570;13.052;2023-07-29T05:48:39;1.07;;;1.07;;
23206;SDS011;11773;52.570;13.052;2023-07-29T05:51:09;1.70;;;1.60;;
23206;SDS011;11773;52.570;13.052;2023-07-29T05:53:38;1.07;;;1.07;;
23206;SDS011;11773;52.570;13.052;2023-07-29T05:56:08;1.30;;;1.30;;
23206;SDS011;11773;52.570;13.052;2023-07-29T05:58:37;1.80;;;1.70;;
23206;SDS011;11773;52.570;13.052;2023-07-29T06:01:07;1.73;;;1.63;;
23206;SDS011;11773;52.570;13.052;2023-07-29T06:03:37;1.60;;;1.50;;
23206;SDS011;11773;52.570;13.052;2023-07-29T06:06:06;1.80;;;1.70;;
23206;SDS011;11773;52.570;13.052;2023-07-29T06:08:37;1.70;;;1.60;;
23206;SDS011;11773;52.570;13.052;2023-07-29T06:11:06;1.53;;;1.43;;
23206;SDS011;11773;52.570;13.052;2023-07-29T06:13:36;1.67;;;1.57;;
23206;SDS011;11773;52.570;13.052;2023-07-29T06:16:06;1.60;;;1.50;;
23206;SDS011;11773;52.570;13.052;2023-07-29T06:18:35;1.63;;;1.53;;
23206;SDS011;11773;52.570;13.052;2023-07-29T06:21:05;1.40;;;1.30;;
23206;SDS011;11773;52.570;13.052;2023-07-29T06:23:34;1.63;;;1.40;;
23206;SDS011;11773;52.570;13.052;2023-07-29T06:26:04;1.57;;;1.47;;
23206;SDS011;11773;52.570;13.052;2023-07-29T06:28:34;1.10;;;1.10;;
23206;SDS011;11773;52.570;13.052;2023-07-29T06:31:03;1.80;;;1.70;;
23206;SDS011;11773;52.570;13.052;2023-07-29T06:33:33;1.30;;;1.30;;
23206;SDS011;11773;52.570;13.052;2023-07-29T06:36:02;1.50;;;1.40;;
23206;SDS011;11773;52.570;13.052;2023-07-29T06:38:32;1.60;;;1.50;;
23206;SDS011;11773;52.570;13.052;2023-07-29T06:41:02;1.57;;;1.47;;
23206;SDS011;11773;52.570;13.052;2023-07-29T06:43:33;1.90;;;1.80;;
23206;SDS011;11773;52.570;13.052;2023-07-29T06:46:03;1.53;;;1.40;;
23206;SDS011;11773;52.570;13.052;2023-07-29T06:48:32;1.30;;;1.30;;
23206;SDS011;11773;52.570;13.052;2023-07-29T06:51:02;1.80;;;1.70;;
23206;SDS011;11773;52.570;13.052;2023-07-29T06:53:31;1.50;;;1.40;;
23206;SDS011;11773;52.570;13.052;2023-07-29T06:56:01;1.50;;;1.40;;
23206;SDS011;11773;52.570;13.052;2023-07-29T06:58:31;1.80;;;1.70;;
23206;SDS011;11773;52.570;13.052;2023-07-29T07:01:01;1.23;;;1.23;;
23206;SDS011;11773;52.570;13.052;2023-07-29T07:03:30;1.43;;;1.33;;
23206;SDS011;11773;52.570;13.052;2023-07-29T07:06:00;1.27;;;1.27;;
23206;SDS011;11773;52.570;13.052;2023-07-29T07:08:30;1.17;;;1.10;;
23206;SDS011;11773;52.570;13.052;2023-07-29T07:10:59;1.30;;;1.20;;
23206;SDS011;11773;52.570;13.052;2023-07-29T07:13:29;1.13;;;1.13;;
23206;SDS011;11773;52.570;13.052;2023-07-29T07:15:58;1.40;;;1.30;;
23206;SDS011;11773;52.570;13.052;2023-07-29T07:18:28;1.30;;;1.30;;
23206;SDS011;11773;52.570;13.052;2023-07-29T07:20:58;1.10;;;1.10;;
23206;SDS011;11773;52.570;13.052;2023-07-29T07:23:27;1.37;;;1.30;;
23206;SDS011;11773;52.570;13.052;2023-07-29T07:25:57;1.00;;;1.00;;
23206;SDS011;11773;52.570;13.052;2023-07-29T07:28:26;1.20;;;1.20;;
23206;SDS011;11773;52.570;13.052;2023-07-29T07:30:56;1.40;;;1.30;;
23206;SDS011;11773;52.570;13.052;2023-07-29T07:33:26;1.20;;;1.20;;
23206;SDS011;11773;52.570;13.052;2023-07-29T07:35:55;1.50;;;1.40;;
23206;SDS011;11773;52.570;13.052;2023-07-29T07:38:25;2.90;;;1.30;;
23206;SDS011;11773;52.570;13.052;2023-07-29T07:40:55;1.40;;;1.40;;
23206;SDS011;11773;52.570;13.052;2023-07-29T07:43:25;1.30;;;1.30;;
23206;SDS011;11773;52.570;13.052;2023-07-29T07:45:58;1.50;;;1.40;;
23206;SDS011;11773;52.570;13.052;2023-07-29T07:48:29;1.67;;;1.53;;
23206;SDS011;11773;52.570;13.052;2023-07-29T07:51:00;1.50;;;1.40;;
23206;SDS011;11773;52.570;13.052;2023-07-29T07:53:40;1.23;;;1.23;;
23206;SDS011;11773;52.570;13.052;2023-07-29T07:56:10;1.17;;;1.17;;
23206;SDS011;11773;52.570;13.052;2023-07-29T07:58:39;1.20;;;1.10;;
23206;SDS011;11773;52.570;13.052;2023-07-29T08:01:09;1.47;;;1.37;;
23206;SDS011;11773;52.570;13.052;2023-07-29T08:03:39;1.60;;;1.50;;
23206;SDS011;11773;52.570;13.052;2023-07-29T08:06:09;1.10;;;1.10;;
23206;SDS011;11773;52.570;13.052;2023-07-29T08:08:39;1.30;;;1.30;;
23206;SDS011;11773;52.570;13.052;2023-07-29T08:11:08;1.13;;;1.13;;
23206;SDS011;11773;52.570;13.052;2023-07-29T08:13:38;1.10;;;1.10;;
23206;SDS011;11773;52.570;13.052;2023-07-29T08:16:07;0.80;;;0.80;;
23206;SDS011;11773;52.570;13.052;2023-07-29T08:18:37;1.07;;;1.07;;
23206;SDS011;11773;52.570;13.052;2023-07-29T08:21:08;1.00;;;1.00;;
23206;SDS011;11773;52.570;13.052;2023-07-29T08:23:38;0.90;;;0.90;;
23206;SDS011;11773;52.570;13.052;2023-07-29T08:26:07;0.90;;;0.90;;
23206;SDS011;11773;52.570;13.052;2023-07-29T08:28:37;0.90;;;0.90;;
23206;SDS011;11773;52.570;13.052;2023-07-29T08:31:08;0.90;;;0.90;;
23206;SDS011;11773;52.570;13.052;2023-07-29T08:33:37;0.77;;;0.77;;
23206;SDS011;11773;52.570;13.052;2023-07-29T08:36:07;0.90;;;0.90;;
23206;SDS011;11773;52.570;13.052;2023-07-29T08:38:37;0.73;;;0.73;;
23206;SDS011;11773;52.570;13.052;2023-07-29T08:41:19;0.80;;;0.80;;
23206;SDS011;11773;52.570;13.052;2023-07-29T08:44:02;0.70;;;0.70;;
23206;SDS011;11773;52.570;13.052;2023-07-29T08:46:41;0.80;;;0.80;;
23206;SDS011;11773;52.570;13.052;2023-07-29T08:49:11;0.80;;;0.80;;
23206;SDS011;11773;52.570;13.052;2023-07-29T08:51:42;0.80;;;0.80;;
23206;SDS011;11773;52.570;13.052;2023-07-29T08:54:16;0.80;;;0.80;;
23206;SDS011;11773;52.570;13.052;2023-07-29T08:56:46;1.27;;;1.17;;
23206;SDS011;11773;52.570;13.052;2023-07-29T08:59:16;0.90;;;0.90;;
23206;SDS011;11773;52.570;13.052;2023-07-29T09:01:47;0.80;;;0.80;;
23206;SDS011;11773;52.570;13.052;2023-07-29T09:04:17;0.60;;;0.60;;
23206;SDS011;11773;52.570;13.052;2023-07-29T09:06:47;0.97;;;0.97;;
23206;SDS011;11773;52.570;13.052;2023-07-29T09:09:19;0.70;;;0.70;;
23206;SDS011;11773;52.570;13.052;2023-07-29T09:11:50;0.53;;;0.53;;
23206;SDS011;11773;52.570;13.052;2023-07-29T09:14:19;0.73;;;0.73;;
23206;SDS011;11773;52.570;13.052;2023-07-29T09:16:49;0.80;;;0.80;;
23206;SDS011;11773;52.570;13.052;2023-07-29T09:19:19;0.60;;;0.60;;
23206;SDS011;11773;52.570;13.052;2023-07-29T09:21:49;0.80;;;0.80;;
23206;SDS011;11773;52.570;13.052;2023-07-29T09:24:19;0.80;;;0.70;;
23206;SDS011;11773;52.570;13.052;2023-07-29T09:26:50;0.53;;;0.53;;
23206;SDS011;11773;52.570;13.052;2023-07-29T09:29:21;0.67;;;0.67;;
23206;SDS011;11773;52.570;13.052;2023-07-29T09:31:51;0.60;;;0.60;;
23206;SDS011;11773;52.570;13.052;2023-07-29T09:34:21;0.70;;;0.70;;
23206;SDS011;11773;52.570;13.052;2023-07-29T09:36:50;0.60;;;0.60;;
23206;SDS011;11773;52.570;13.052;2023-07-29T09:39:22;0.50;;;0.50;;
23206;SDS011;11773;52.570;13.052;2023-07-29T09:41:51;0.90;;;0.90;;
23206;SDS011;11773;52.570;13.052;2023-07-29T09:44:21;0.70;;;0.70;;
23206;SDS011;11773;52.570;13.052;2023-07-29T09:46:51;0.70;;;0.70;;
23206;SDS011;11773;52.570;13.052;2023-07-29T09:49:21;0.80;;;0.80;;
23206;SDS011;11773;52.570;13.052;2023-07-29T09:51:51;0.70;;;0.70;;
23206;SDS011;11773;52.570;13.052;2023-07-29T09:54:25;0.90;;;0.90;;
23206;SDS011;11773;52.570;13.052;2023-07-29T09:56:54;0.60;;;0.60;;
23206;SDS011;11773;52.570;13.052;2023-07-29T09:59:25;0.70;;;0.70;;
23206;SDS011;11773;52.570;13.052;2023-07-29T10:01:54;0.70;;;0.70;;
23206;SDS011;11773;52.570;13.052;2023-07-29T10:04:24;0.90;;;0.90;;
23206;SDS011;11773;52.570;13.052;2023-07-29T10:06:57;1.33;;;0.63;;
23206;SDS011;11773;52.570;13.052;2023-07-29T10:09:28;1.00;;;1.00;;
23206;SDS011;11773;52.570;13.052;2023-07-29T10:11:59;0.90;;;0.90;;
23206;SDS011;11773;52.570;13.052;2023-07-29T10:14:28;0.90;;;0.90;;
23206;SDS011;11773;52.570;13.052;2023-07-29T10:17:00;0.73;;;0.70;;
23206;SDS011;11773;52.570;13.052;2023-07-29T10:19:32;0.50;;;0.50;;
23206;SDS011;11773;52.570;13.052;2023-07-29T10:22:04;0.50;;;0.50;;
23206;SDS011;11773;52.570;13.052;2023-07-29T10:24:35;0.60;;;0.60;;
23206;SDS011;11773;52.570;13.052;2023-07-29T10:27:09;1.07;;;1.07;;
23206;SDS011;11773;52.570;13.052;2023-07-29T10:29:43;0.57;;;0.57;;
23206;SDS011;11773;52.570;13.052;2023-07-29T10:32:14;0.60;;;0.60;;
23206;SDS011;11773;52.570;13.052;2023-07-29T10:34:44;0.50;;;0.50;;
23206;SDS011;11773;52.570;13.052;2023-07-29T10:37:14;0.60;;;0.60;;
23206;SDS011;11773;52.570;13.052;2023-07-29T10:39:53;0.63;;;0.63;;
23206;SDS011;11773;52.570;13.052;2023-07-29T10:42:23;0.70;;;0.70;;
23206;SDS011;11773;52.570;13.052;2023-07-29T10:44:52;0.80;;;0.80;;
23206;SDS011;11773;52.570;13.052;2023-07-29T10:47:27;1.00;;;0.90;;
23206;SDS011;11773;52.570;13.052;2023-07-29T10:49:58;0.60;;;0.60;;
23206;SDS011;11773;52.570;13.052;2023-07-29T10:58:09;0.40;;;0.40;;
23206;SDS011;11773;52.570;13.052;2023-07-29T11:00:46;0.60;;;0.50;;
23206;SDS011;11773;52.570;13.052;2023-07-29T11:03:17;1.03;;;0.70;;
23206;SDS011;11773;52.570;13.052;2023-07-29T11:05:49;0.70;;;0.70;;
23206;SDS011;11773;52.570;13.052;2023-07-29T11:08:22;0.90;;;0.90;;
23206;SDS011;11773;52.570;13.052;2023-07-29T11:11:04;0.73;;;0.73;;
23206;SDS011;11773;52.570;13.052;2023-07-29T11:13:36;0.80;;;0.80;;
23206;SDS011;11773;52.570;13.052;2023-07-29T11:16:09;0.63;;;0.63;;
23206;SDS011;11773;52.570;13.052;2023-07-29T11:18:40;0.70;;;0.70;;
23206;SDS011;11773;52.570;13.052;2023-07-29T11:21:12;0.80;;;0.80;;
23206;SDS011;11773;52.570;13.052;2023-07-29T11:23:43;0.60;;;0.60;;
23206;SDS011;11773;52.570;13.052;2023-07-29T11:26:13;0.70;;;0.70;;
23206;SDS011;11773;52.570;13.052;2023-07-29T11:28:42;0.70;;;0.70;;
23206;SDS011;11773;52.570;13.052;2023-07-29T11:31:13;0.60;;;0.60;;
23206;SDS011;11773;52.570;13.052;2023-07-29T11:33:44;0.60;;;0.60;;
23206;SDS011;11773;52.570;13.052;2023-07-29T11:36:18;1.40;;;0.70;;
23206;SDS011;11773;52.570;13.052;2023-07-29T11:38:47;0.80;;;0.80;;
23206;SDS011;11773;52.570;13.052;2023-07-29T11:41:19;0.60;;;0.60;;
23206;SDS011;11773;52.570;13.052;2023-07-29T11:43:49;0.80;;;0.80;;
23206;SDS011;11773;52.570;13.052;2023-07-29T11:46:20;0.60;;;0.60;;
23206;SDS011;11773;52.570;13.052;2023-07-29T11:48:50;0.60;;;0.60;;
23206;SDS011;11773;52.570;13.052;2023-07-29T11:51:25;0.63;;;0.63;;
23206;SDS011;11773;52.570;13.052;2023-07-29T11:53:54;0.60;;;0.60;;
23206;SDS011;11773;52.570;13.052;2023-07-29T11:56:24;0.60;;;0.60;;
23206;SDS011;11773;52.570;13.052;2023-07-29T11:58:55;0.80;;;0.80;;
23206;SDS011;11773;52.570;13.052;2023-07-29T12:01:25;0.70;;;0.70;;
23206;SDS011;11773;52.570;13.052;2023-07-29T12:03:56;0.80;;;0.80;;
23206;SDS011;11773;52.570;13.052;2023-07-29T12:06:27;0.70;;;0.67;;
23206;SDS011;11773;52.570;13.052;2023-07-29T12:08:58;0.87;;;0.87;;
23206;SDS011;11773;52.570;13.052;2023-07-29T12:11:28;0.80;;;0.80;;
23206;SDS011;11773;52.570;13.052;2023-07-29T12:14:00;0.63;;;0.63;;
23206;SDS011;11773;52.570;13.052;2023-07-29T12:16:29;0.70;;;0.70;;
23206;SDS011;11773;52.570;13.052;2023-07-29T12:19:02;0.83;;;0.83;;
23206;SDS011;11773;52.570;13.052;2023-07-29T12:21:32;0.70;;;0.70;;
23206;SDS011;11773;52.570;13.052;2023-07-29T12:24:03;0.60;;;0.60;;
23206;SDS011;11773;52.570;13.052;2023-07-29T12:26:32;0.80;;;0.80;;
23206;SDS011;11773;52.570;13.052;2023-07-29T12:29:14;0.50;;;0.50;;
23206;SDS011;11773;52.570;13.052;2023-07-29T12:31:46;0.60;;;0.60;;
23206;SDS011;11773;52.570;13.052;2023-07-29T12:34:17;0.50;;;0.50;;
23206;SDS011;11773;52.570;13.052;2023-07-29T12:36:49;0.93;;;0.90;;
23206;SDS011;11773;52.570;13.052;2023-07-29T12:39:22;0.50;;;0.50;;
23206;SDS011;11773;52.570;13.052;2023-07-29T12:42:00;0.70;;;0.70;;
23206;SDS011;11773;52.570;13.052;2023-07-29T12:44:33;0.60;;;0.60;;
23206;SDS011;11773;52.570;13.052;2023-07-29T12:47:05;0.70;;;0.70;;
23206;SDS011;11773;52.570;13.052;2023-07-29T12:49:37;0.57;;;0.57;;
23206;SDS011;11773;52.570;13.052;2023-07-29T12:52:07;0.40;;;0.40;;
23206;SDS011;11773;52.570;13.052;2023-07-29T12:54:36;0.60;;;0.60;;
23206;SDS011;11773;52.570;13.052;2023-07-29T12:57:07;0.70;;;0.70;;
23206;SDS011;11773;52.570;13.052;2023-07-29T12:59:36;0.70;;;0.70;;
23206;SDS011;11773;52.570;13.052;2023-07-29T13:02:06;0.70;;;0.70;;
23206;SDS011;11773;52.570;13.052;2023-07-29T13:04:35;0.67;;;0.67;;
23206;SDS011;11773;52.570;13.052;2023-07-29T13:07:05;0.50;;;0.50;;
23206;SDS011;11773;52.570;13.052;2023-07-29T13:09:34;0.40;;;0.40;;
23206;SDS011;11773;52.570;13.052;2023-07-29T13:12:05;0.50;;;0.50;;
23206;SDS011;11773;52.570;13.052;2023-07-29T13:14:35;0.33;;;0.33;;
23206;SDS011;11773;52.570;13.052;2023-07-29T13:17:04;0.40;;;0.40;;
23206;SDS011;11773;52.570;13.052;2023-07-29T13:19:34;0.50;;;0.50;;
23206;SDS011;11773;52.570;13.052;2023-07-29T13:22:04;0.53;;;0.53;;
23206;SDS011;11773;52.570;13.052;2023-07-29T13:24:33;0.70;;;0.70;;
23206;SDS011;11773;52.570;13.052;2023-07-29T13:27:03;0.50;;;0.50;;
23206;SDS011;11773;52.570;13.052;2023-07-29T13:29:33;0.70;;;0.67;;
23206;SDS011;11773;52.570;13.052;2023-07-29T13:32:02;0.50;;;0.50;;
23206;SDS011;11773;52.570;13.052;2023-07-29T13:34:33;0.47;;;0.47;;
23206;SDS011;11773;52.570;13.052;2023-07-29T13:37:02;0.43;;;0.43;;
23206;SDS011;11773;52.570;13.052;2023-07-29T13:39:32;0.47;;;0.47;;
23206;SDS011;11773;52.570;13.052;2023-07-29T13:42:02;0.40;;;0.40;;
23206;SDS011;11773;52.570;13.052;2023-07-29T13:44:32;0.50;;;0.50;;
23206;SDS011;11773;52.570;13.052;2023-07-29T13:47:02;0.60;;;0.60;;
23206;SDS011;11773;52.570;13.052;2023-07-29T13:49:31;0.40;;;0.40;;
23206;SDS011;11773;52.570;13.052;2023-07-29T13:52:01;0.40;;;0.40;;
23206;SDS011;11773;52.570;13.052;2023-07-29T13:54:30;0.40;;;0.40;;
23206;SDS011;11773;52.570;13.052;2023-07-29T13:57:00;0.40;;;0.40;;
23206;SDS011;11773;52.570;13.052;2023-07-29T13:59:30;0.40;;;0.40;;
23206;SDS011;11773;52.570;13.052;2023-07-29T14:01:59;0.43;;;0.43;;
23206;SDS011;11773;52.570;13.052;2023-07-29T14:04:29;0.40;;;0.40;;
23206;SDS011;11773;52.570;13.052;2023-07-29T14:06:59;0.40;;;0.40;;
23206;SDS011;11773;52.570;13.052;2023-07-29T14:09:29;0.87;;;0.47;;
23206;SDS011;11773;52.570;13.052;2023-07-29T14:11:59;0.40;;;0.40;;
23206;SDS011;11773;52.570;13.052;2023-07-29T14:14:29;0.60;;;0.60;;
23206;SDS011;11773;52.570;13.052;2023-07-29T14:16:59;0.60;;;0.60;;
23206;SDS011;11773;52.570;13.052;2023-07-29T14:19:28;0.50;;;0.50;;
23206;SDS011;11773;52.570;13.052;2023-07-29T14:21:59;0.77;;;0.77;;
23206;SDS011;11773;52.570;13.052;2023-07-29T14:24:29;0.57;;;0.57;;
23206;SDS011;11773;52.570;13.052;2023-07-29T14:26:58;0.70;;;0.70;;
23206;SDS011;11773;52.570;13.052;2023-07-29T14:29:28;0.60;;;0.60;;
23206;SDS011;11773;52.570;13.052;2023-07-29T14:31:57;0.57;;;0.57;;
23206;SDS011;11773;52.570;13.052;2023-07-29T14:34:27;0.50;;;0.50;;
23206;SDS011;11773;52.570;13.052;2023-07-29T14:36:57;0.50;;;0.50;;
23206;SDS011;11773;52.570;13.052;2023-07-29T14:39:26;0.50;;;0.50;;
23206;SDS011;11773;52.570;13.052;2023-07-29T14:41:56;0.47;;;0.47;;
23206;SDS011;11773;52.570;13.052;2023-07-29T14:44:25;0.40;;;0.40;;
23206;SDS011;11773;52.570;13.052;2023-07-29T14:46:55;0.40;;;0.40;;
23206;SDS011;11773;52.570;13.052;2023-07-29T14:49:24;0.50;;;0.50;;
23206;SDS011;11773;52.570;13.052;2023-07-29T14:51:54;0.57;;;0.57;;
23206;SDS011;11773;52.570;13.052;2023-07-29T14:54:24;0.40;;;0.40;;
23206;SDS011;11773;52.570;13.052;2023-07-29T14:56:53;0.30;;;0.30;;
23206;SDS011;11773;52.570;13.052;2023-07-29T14:59:23;0.40;;;0.40;;
23206;SDS011;11773;52.570;13.052;2023-07-29T15:01:52;0.50;;;0.50;;